Time;durP1;ratioP1;P1;durP2;ratioP2;P2;SDS_P1;SDS_P2;PMS_P1;PMS_P2;Temp;Humidity;BMP_temperature;BMP_pressure;BME280_temperature;BME280_humidity;BME280_pressure;Samples;Min_cycle;Max_cycle;Signal;HPM_P1;HPM_P2
2022/03/14 11:20:59;;;;;;;4.00;1.17;;;;;;;11.79;59.01;154386.53;5101916;27;20557;-76
2022/03/14 11:23:36;;;;;;;1.43;0.73;;;;;;;11.78;60.61;154385.22;5081742;28;20445;-75
2022/03/14 11:26:12;;;;;;;2.20;0.90;;;;;;;11.75;59.26;154376.19;5073840;28;20479;-75
2022/03/14 11:28:49;;;;;;;2.17;0.80;;;;;;;11.72;59.02;154369.72;5078414;28;20929;-76
2022/03/14 11:31:25;;;;;;;1.20;1.00;;;;;;;11.77;57.23;154381.38;5069611;28;20465;-75
2022/03/14 11:34:00;;;;;;;2.93;0.97;;;;;;;11.74;60.20;154373.59;5063606;28;20453;-75
2022/03/14 11:36:37;;;;;;;3.80;0.93;;;;;;;11.80;57.30;154389.16;5084368;28;20437;-76
2022/03/14 11:39:13;;;;;;;2.30;0.93;;;;;;;11.85;56.39;154402.09;5099581;28;20870;-75
2022/03/14 11:41:49;;;;;;;2.40;0.80;;;;;;;11.95;58.12;154429.31;5080491;28;20440;-75
2022/03/14 11:44:25;;;;;;;2.17;1.00;;;;;;;11.93;58.41;154424.16;5082318;28;21031;-75
2022/03/14 11:47:01;;;;;;;1.43;1.00;;;;;;;11.95;57.34;154429.31;5069137;28;20835;-75
2022/03/14 11:49:37;;;;;;;4.30;0.90;;;;;;;12.01;59.42;154444.91;5068499;28;21028;-75
2022/03/14 11:52:18;;;;;;;1.53;1.00;;;;;;;11.95;59.89;154429.31;5082630;28;20436;-75
2022/03/14 11:54:58;;;;;;;1.67;1.03;;;;;;;11.93;57.82;154424.16;5081703;28;20534;-74
2022/03/14 11:57:35;;;;;;;1.40;0.90;;;;;;;11.87;56.00;154408.56;5112854;28;20879;-75
2022/03/14 12:00:33;;;;;;;2.03;1.23;;;;;;;11.92;60.95;154421.53;5073799;28;20469;-74
2022/03/14 12:03:35;;;;;;;5.80;1.67;;;;;;;11.79;55.28;154387.84;5084204;28;20493;-74
2022/03/14 12:06:10;;;;;;;1.33;1.00;;;;;;;11.87;60.38;154408.56;5079351;28;20473;-74
2022/03/14 12:08:56;;;;;;;2.30;0.80;;;;;;;11.73;58.01;154371.03;5119972;27;20449;-75
2022/03/14 12:11:36;;;;;;;2.30;0.93;;;;;;;11.74;58.90;154373.59;5079014;28;20478;-75
2022/03/14 12:14:13;;;;;;;2.70;0.80;;;;;;;11.74;61.17;154374.88;5078220;28;20531;-75
2022/03/14 12:16:49;;;;;;;3.40;0.93;;;;;;;11.71;59.62;154367.09;5079471;28;20438;-75
2022/03/14 12:19:30;;;;;;;1.73;1.40;;;;;;;11.67;54.14;154356.72;5076603;28;20571;-75
2022/03/14 12:22:07;;;;;;;4.30;1.33;;;;;;;11.67;58.99;154356.72;5100816;28;20442;-75
2022/03/14 12:24:46;;;;;;;2.07;1.60;;;;;;;11.72;57.93;154368.41;5078298;28;20586;-75
2022/03/14 12:27:29;;;;;;;2.17;0.93;;;;;;;11.66;60.67;154354.09;5113684;27;20511;-75
2022/03/14 12:30:08;;;;;;;6.00;0.97;;;;;;;11.71;59.87;154365.81;5081852;28;20464;-76
2022/03/14 12:32:54;;;;;;;2.33;0.67;;;;;;;11.75;54.99;154376.19;5087686;28;20452;-76
2022/03/14 12:35:33;;;;;;;1.77;0.70;;;;;;;11.73;56.67;154372.28;5095342;28;20447;-75
2022/03/14 12:38:15;;;;;;;1.97;0.90;;;;;;;11.75;56.80;154377.50;5047938;28;20493;-76
2022/03/14 12:40:56;;;;;;;1.27;0.87;;;;;;;11.85;56.31;154403.41;5098324;28;20439;-75
2022/03/14 12:43:34;;;;;;;1.80;0.90;;;;;;;11.94;55.99;154425.47;5084873;28;20865;-75
2022/03/14 12:46:09;;;;;;;1.40;0.97;;;;;;;12.05;57.40;154455.25;5066689;28;20824;-76
2022/03/14 12:48:51;;;;;;;1.53;0.83;;;;;;;12.23;53.45;154501.91;5064933;28;20991;-75
2022/03/14 12:51:27;;;;;;;1.70;0.83;;;;;;;12.29;53.20;154514.84;5046855;28;20552;-76
2022/03/14 12:54:04;;;;;;;1.67;0.73;;;;;;;12.33;55.71;154525.25;5069492;28;20449;-75
2022/03/14 12:56:43;;;;;;;1.07;0.63;;;;;;;12.42;53.92;154548.56;5069067;28;20865;-76
2022/03/14 12:59:20;;;;;;;1.23;0.67;;;;;;;12.44;52.78;154553.78;5088583;28;20450;-75
2022/03/14 13:01:56;;;;;;;1.73;0.80;;;;;;;12.50;52.63;154569.31;5068107;28;20457;-75
2022/03/14 13:04:32;;;;;;;0.93;0.70;;;;;;;12.62;55.02;154600.47;5068772;28;20450;-76
2022/03/14 13:07:08;;;;;;;2.13;1.40;;;;;;;12.69;53.38;154618.63;5064982;28;20450;-76
2022/03/14 13:09:51;;;;;;;2.03;0.60;;;;;;;12.75;52.87;154634.19;5072040;28;20471;-75
2022/03/14 13:12:29;;;;;;;2.20;0.70;;;;;;;12.76;51.08;154636.81;5053306;28;20447;-76
2022/03/14 13:15:07;;;;;;;1.53;0.60;;;;;;;12.74;50.98;154632.88;5063729;28;20453;-75
2022/03/14 13:17:48;;;;;;;1.80;0.70;;;;;;;12.78;51.44;154643.28;5087010;28;20481;-76
2022/03/14 13:20:26;;;;;;;1.40;0.70;;;;;;;12.78;51.80;154643.28;5066450;28;20474;-76
2022/03/14 13:23:14;;;;;;;1.87;0.80;;;;;;;12.76;52.14;154636.81;5097273;27;20451;-75
2022/03/14 13:25:51;;;;;;;2.20;0.53;;;;;;;12.83;51.31;154654.94;5061951;28;21027;-74
2022/03/14 13:28:28;;;;;;;4.17;0.80;;;;;;;12.77;55.05;154639.38;5100349;27;20487;-75
2022/03/14 13:31:06;;;;;;;1.60;0.70;;;;;;;12.78;55.22;154641.97;5080558;28;20466;-75
2022/03/14 13:33:47;;;;;;;0.90;0.47;;;;;;;12.73;55.47;154630.28;5082107;28;20437;-75
2022/03/14 13:36:23;;;;;;;1.67;0.50;;;;;;;12.76;50.23;154636.81;5090257;28;20457;-75
2022/03/14 13:38:59;;;;;;;1.07;0.60;;;;;;;12.78;49.46;154641.97;5065797;28;20773;-75
2022/03/14 13:41:35;;;;;;;3.40;1.10;;;;;;;12.80;50.00;154647.16;5052725;28;20895;-75
2022/03/14 13:44:16;;;;;;;2.50;0.97;;;;;;;12.81;49.96;154649.75;5095012;27;20473;-75
2022/03/14 13:46:52;;;;;;;1.50;1.07;;;;;;;12.69;49.50;154619.91;5081337;28;20467;-75
2022/03/14 13:49:43;;;;;;;3.10;1.60;;;;;;;12.68;49.81;154616.03;5067069;28;20531;-75
2022/03/14 13:52:31;;;;;;;1.83;1.00;;;;;;;12.69;50.56;154618.63;5069444;28;20568;-75
2022/03/14 13:55:13;;;;;;;1.40;0.80;;;;;;;12.75;51.44;154634.19;5063148;28;20596;-74
2022/03/14 13:57:48;;;;;;;2.20;0.93;;;;;;;12.71;51.22;154625.09;5069315;28;20462;-75
2022/03/14 14:00:28;;;;;;;1.90;1.20;;;;;;;12.70;50.22;154621.22;5047107;28;20454;-77
2022/03/14 14:03:05;;;;;;;2.30;1.03;;;;;;;12.63;51.15;154603.03;5064356;28;20858;-75
2022/03/14 14:05:40;;;;;;;3.40;1.07;;;;;;;12.56;54.96;154584.91;5099341;27;20454;-75
2022/03/14 14:08:30;;;;;;;1.43;0.80;;;;;;;12.55;53.10;154583.59;5072967;28;20823;-75
2022/03/14 14:11:07;;;;;;;1.60;1.00;;;;;;;12.64;52.11;154605.66;5059619;28;20488;-75
2022/03/14 14:13:47;;;;;;;1.63;0.87;;;;;;;12.61;52.70;154599.16;5059411;28;20454;-75
2022/03/14 14:16:24;;;;;;;1.83;0.90;;;;;;;12.51;52.53;154571.94;5076355;28;20518;-75
2022/03/14 14:19:09;;;;;;;2.47;1.00;;;;;;;12.48;52.72;154564.16;5061517;28;20469;-75
2022/03/14 14:21:54;;;;;;;3.73;1.10;;;;;;;12.50;53.40;154569.31;5078488;28;20446;-75
2022/03/14 14:24:31;;;;;;;1.87;1.10;;;;;;;12.54;54.16;154579.72;5063651;28;20442;-75
2022/03/14 14:27:16;;;;;;;5.57;1.60;;;;;;;12.47;54.97;154561.59;5077714;28;21030;-75
2022/03/14 14:29:55;;;;;;;2.97;1.00;;;;;;;12.47;53.45;154562.84;5063897;28;20470;-76
2022/03/14 14:32:33;;;;;;;3.80;1.27;;;;;;;12.50;53.13;154569.31;5046532;28;20857;-76
2022/03/14 14:35:11;;;;;;;2.17;1.00;;;;;;;12.43;54.07;154551.19;5079547;28;20539;-76
2022/03/14 14:37:46;;;;;;;2.40;1.70;;;;;;;12.45;53.42;154556.34;5094172;28;20534;-76
2022/03/14 14:40:22;;;;;;;1.73;0.90;;;;;;;12.47;55.15;154562.84;5064406;28;20809;-76
2022/03/14 14:42:58;;;;;;;3.17;1.10;;;;;;;12.43;52.95;154551.19;5065424;28;20449;-76
2022/03/14 14:45:34;;;;;;;2.77;0.90;;;;;;;12.52;52.13;154574.53;5078713;28;20946;-76
2022/03/14 14:48:12;;;;;;;3.27;1.20;;;;;;;12.36;52.13;154534.34;5090575;27;20813;-76
2022/03/14 14:50:49;;;;;;;2.47;1.07;;;;;;;12.30;52.40;154517.47;5081225;28;20463;-75
2022/03/14 14:53:26;;;;;;;1.70;0.90;;;;;;;12.23;52.19;154501.91;5098062;28;20920;-76
2022/03/14 14:56:01;;;;;;;1.73;0.87;;;;;;;12.31;52.11;154520.09;5096159;28;20483;-75
2022/03/14 14:58:37;;;;;;;1.10;0.70;;;;;;;12.26;53.00;154508.38;5081945;28;20446;-75
2022/03/14 15:01:13;;;;;;;2.70;1.63;;;;;;;12.21;53.31;154496.72;5099791;27;20469;-76
2022/03/14 15:03:50;;;;;;;2.60;0.87;;;;;;;12.27;53.03;154509.69;5063078;28;20458;-76
2022/03/14 15:06:26;;;;;;;3.90;1.17;;;;;;;12.18;53.61;154488.94;5062157;28;20438;-76
2022/03/14 15:09:02;;;;;;;4.40;1.53;;;;;;;12.19;53.80;154491.56;5068714;28;20457;-76
2022/03/14 15:11:38;;;;;;;2.47;1.47;;;;;;;12.19;53.84;154490.25;5064035;28;20497;-76
2022/03/14 15:14:14;;;;;;;3.50;1.07;;;;;;;12.17;53.41;154486.38;5077884;28;20453;-76
2022/03/14 15:16:50;;;;;;;3.60;1.40;;;;;;;12.18;53.21;154487.63;5066258;28;20956;-76
2022/03/14 15:19:27;;;;;;;2.37;1.27;;;;;;;12.13;53.35;154474.66;5063557;28;20864;-76
2022/03/14 15:22:03;;;;;;;1.53;1.30;;;;;;;12.05;53.33;154453.94;5066756;28;20441;-76
2022/03/14 15:24:38;;;;;;;1.77;1.00;;;;;;;12.05;53.80;154453.94;5063324;28;20454;-76
2022/03/14 15:27:14;;;;;;;3.10;1.60;;;;;;;12.06;53.89;154457.84;5062689;28;20789;-76
2022/03/14 15:29:50;;;;;;;3.53;2.77;;;;;;;12.10;53.63;154468.19;5064698;28;20454;-76
2022/03/14 15:32:26;;;;;;;2.20;1.13;;;;;;;12.09;53.77;154464.31;5060060;28;20463;-76
2022/03/14 15:35:04;;;;;;;1.73;1.30;;;;;;;12.06;53.53;154457.84;5047633;28;20800;-76
2022/03/14 15:37:39;;;;;;;2.10;1.40;;;;;;;12.01;54.21;154444.91;5094625;28;20788;-76
2022/03/14 15:40:17;;;;;;;4.13;1.13;;;;;;;11.99;54.28;154438.41;5090782;28;20435;-76
2022/03/14 15:42:52;;;;;;;3.40;1.83;;;;;;;11.95;53.77;154429.31;5091311;28;20832;-76
2022/03/14 15:45:28;;;;;;;1.77;1.00;;;;;;;11.94;54.73;154426.72;5062852;28;20450;-76
2022/03/14 15:48:04;;;;;;;5.63;1.53;;;;;;;11.91;54.54;154418.97;5044886;28;20453;-76
2022/03/14 15:50:41;;;;;;;4.93;1.20;;;;;;;11.92;53.71;154421.53;5066722;28;20470;-76
2022/03/14 15:53:17;;;;;;;2.03;1.00;;;;;;;11.92;54.02;154420.22;5065873;28;20966;-76
2022/03/14 15:55:53;;;;;;;4.30;1.00;;;;;;;11.91;54.23;154418.97;5051039;28;20453;-76
2022/03/14 15:58:29;;;;;;;1.70;1.00;;;;;;;11.90;53.99;154415.06;5079610;28;20453;-76
2022/03/14 16:01:04;;;;;;;2.33;1.30;;;;;;;11.85;53.92;154403.41;5100518;28;20483;-76
2022/03/14 16:03:42;;;;;;;3.30;1.20;;;;;;;11.85;54.22;154403.41;5058891;28;20445;-76
2022/03/14 16:06:19;;;;;;;3.23;1.50;;;;;;;11.84;55.13;154400.78;5072998;28;20454;-76
2022/03/14 16:08:54;;;;;;;2.37;1.30;;;;;;;11.84;54.63;154400.78;5102106;27;20833;-76
2022/03/14 16:11:30;;;;;;;2.40;1.10;;;;;;;11.85;54.04;154403.41;5089133;28;21015;-76
2022/03/14 16:14:06;;;;;;;2.60;1.23;;;;;;;11.83;54.05;154398.22;5095126;28;20452;-76
2022/03/14 16:16:42;;;;;;;5.23;1.00;;;;;;;11.75;54.00;154377.50;5062723;28;20441;-76
2022/03/14 16:19:18;;;;;;;2.97;1.20;;;;;;;11.71;54.35;154365.81;5095831;27;20488;-77
2022/03/14 16:21:55;;;;;;;2.20;1.00;;;;;;;11.63;54.52;154346.31;5087448;28;20441;-76
2022/03/14 16:24:30;;;;;;;2.67;1.33;;;;;;;11.63;54.50;154346.31;5082696;28;20482;-76
2022/03/14 16:27:07;;;;;;;1.77;1.27;;;;;;;11.59;54.41;154335.97;5070534;28;20807;-76
2022/03/14 16:29:45;;;;;;;3.63;1.13;;;;;;;11.56;54.71;154329.50;5048108;28;20458;-76
2022/03/14 16:32:20;;;;;;;4.63;1.10;;;;;;;11.59;54.65;154335.97;5067071;28;20470;-76
2022/03/14 16:34:56;;;;;;;1.37;0.87;;;;;;;11.53;54.91;154321.72;5064977;28;20454;-76
2022/03/14 16:37:33;;;;;;;3.40;1.30;;;;;;;11.50;54.57;154313.94;5104496;27;20449;-76
2022/03/14 16:40:09;;;;;;;1.50;1.10;;;;;;;11.45;55.31;154299.69;5083960;28;20438;-76
2022/03/14 16:42:45;;;;;;;3.37;1.00;;;;;;;11.46;55.27;154302.28;5066989;28;20478;-76
2022/03/14 16:45:23;;;;;;;3.70;1.70;;;;;;;11.40;55.29;154286.72;5083390;28;20818;-76
2022/03/14 16:47:59;;;;;;;1.80;1.20;;;;;;;11.36;55.40;154276.34;5064703;28;20438;-76
2022/03/14 16:50:35;;;;;;;2.93;1.40;;;;;;;11.34;55.49;154272.47;5068280;28;20564;-76
2022/03/14 16:53:14;;;;;;;1.43;1.03;;;;;;;11.28;55.87;154256.91;5085154;28;20458;-76
2022/03/14 16:55:50;;;;;;;3.17;1.37;;;;;;;11.24;56.42;154246.56;5099271;28;20442;-76
2022/03/14 16:58:25;;;;;;;2.07;1.17;;;;;;;11.26;56.25;154250.44;5099044;27;20534;-76
2022/03/14 17:01:03;;;;;;;4.10;2.23;;;;;;;11.16;56.64;154224.53;5068376;28;20442;-76
2022/03/14 17:03:38;;;;;;;3.20;1.27;;;;;;;11.22;56.33;154241.41;5063058;28;20454;-76
2022/03/14 17:06:14;;;;;;;2.47;1.80;;;;;;;11.12;56.35;154215.44;5067153;28;20453;-77
2022/03/14 17:08:51;;;;;;;3.17;1.70;;;;;;;11.09;56.43;154206.41;5065665;28;20945;-76
2022/03/14 17:11:27;;;;;;;2.50;1.17;;;;;;;11.04;56.89;154193.47;5066405;28;20457;-76
2022/03/14 17:14:02;;;;;;;3.53;1.47;;;;;;;11.07;56.46;154201.25;5063374;28;20453;-76
2022/03/14 17:16:38;;;;;;;3.27;1.50;;;;;;;10.99;56.88;154181.78;5100959;27;20442;-77
2022/03/14 17:19:14;;;;;;;5.87;2.40;;;;;;;10.89;56.82;154157.19;5064719;28;20477;-76
2022/03/14 17:21:50;;;;;;;4.13;2.80;;;;;;;10.93;56.96;154167.53;5064057;28;20450;-76
2022/03/14 17:24:28;;;;;;;4.63;2.20;;;;;;;10.89;57.33;154157.19;5091804;28;20449;-76
2022/03/14 17:27:05;;;;;;;3.00;1.73;;;;;;;10.88;56.98;154154.56;5058468;28;20450;-76
2022/03/14 17:29:40;;;;;;;3.47;2.40;;;;;;;10.80;57.37;154133.84;5064201;28;20457;-76
2022/03/14 17:32:15;;;;;;;3.17;1.43;;;;;;;10.76;57.94;154123.53;5054465;28;20497;-75
2022/03/14 17:34:51;;;;;;;3.13;1.23;;;;;;;10.73;58.21;154114.44;5065882;28;20579;-76
2022/03/14 17:37:26;;;;;;;3.87;1.17;;;;;;;10.70;58.51;154107.97;5067562;28;20836;-76
2022/03/14 17:40:04;;;;;;;4.90;2.33;;;;;;;10.62;58.64;154087.25;5065629;28;20438;-76
2022/03/14 17:42:40;;;;;;;1.90;1.60;;;;;;;10.53;59.14;154063.97;5080379;28;20447;-76
2022/03/14 17:45:16;;;;;;;7.70;2.50;;;;;;;10.42;59.71;154035.47;5096744;28;20450;-76
2022/03/14 17:47:53;;;;;;;2.43;1.60;;;;;;;10.42;59.98;154035.47;5094741;28;20450;-76
2022/03/14 17:50:30;;;;;;;8.23;2.20;;;;;;;10.38;60.08;154025.09;5062705;28;20449;-76
2022/03/14 17:53:05;;;;;;;5.70;1.77;;;;;;;10.40;59.89;154030.31;5096713;28;20450;-76
2022/03/14 17:55:42;;;;;;;7.30;5.67;;;;;;;10.36;60.29;154019.94;5077836;28;20970;-76
2022/03/14 17:58:18;;;;;;;5.20;4.10;;;;;;;10.34;60.38;154016.06;5096530;28;20447;-76
2022/03/14 18:00:53;;;;;;;9.23;7.60;;;;;;;10.29;60.65;154003.13;5071028;28;20433;-76
2022/03/14 18:03:29;;;;;;;14.03;7.40;;;;;;;10.25;61.01;153991.44;5067483;28;20478;-76
2022/03/14 18:06:05;;;;;;;10.03;7.97;;;;;;;10.21;61.23;153981.09;5053013;28;20449;-76
2022/03/14 18:08:40;;;;;;;3.27;2.30;;;;;;;10.24;60.93;153988.88;5092835;28;20549;-76
2022/03/14 18:11:17;;;;;;;2.83;2.60;;;;;;;10.24;60.58;153990.19;5078809;28;20450;-76
2022/03/14 18:13:53;;;;;;;4.70;4.27;;;;;;;10.21;60.88;153981.09;5092345;28;20549;-76
2022/03/14 18:16:28;;;;;;;3.90;3.60;;;;;;;10.10;61.51;153953.88;5097067;28;21782;-76
2022/03/14 18:19:05;;;;;;;6.57;5.80;;;;;;;10.05;61.89;153940.94;5077265;28;20476;-76
2022/03/14 18:21:41;;;;;;;9.30;8.10;;;;;;;10.01;61.94;153929.25;5062246;28;20435;-76
2022/03/14 18:24:17;;;;;;;3.30;2.53;;;;;;;9.98;62.20;153922.78;5065515;28;20533;-76
2022/03/14 18:26:54;;;;;;;2.87;2.20;;;;;;;9.96;61.91;153916.31;5066075;28;20434;-75
2022/03/14 18:29:30;;;;;;;3.20;2.60;;;;;;;9.93;62.13;153908.59;5079808;28;20454;-75
2022/03/14 18:32:06;;;;;;;3.60;3.30;;;;;;;9.93;62.15;153908.59;5098765;28;20726;-75
2022/03/14 18:34:44;;;;;;;4.95;3.17;;;;;;;9.93;61.99;153908.59;5062201;28;20441;-75
2022/03/14 18:37:19;;;;;;;5.40;3.63;;;;;;;9.92;62.09;153906.00;5065194;28;20220;-75
2022/03/14 18:39:56;;;;;;;9.13;7.40;;;;;;;9.88;62.19;153895.59;5054464;28;20534;-75
2022/03/14 18:42:35;;;;;;;4.57;4.17;;;;;;;9.86;62.36;153891.75;5064275;28;20463;-75
2022/03/14 18:45:12;;;;;;;4.57;3.30;;;;;;;9.85;62.42;153889.16;5062553;28;20459;-75
2022/03/14 18:47:47;;;;;;;7.90;3.00;;;;;;;9.77;62.80;153869.75;5086673;28;20433;-75
2022/03/14 18:50:27;;;;;;;3.70;2.70;;;;;;;9.73;63.30;153858.09;5093733;28;20784;-75
2022/03/14 18:53:03;;;;;;;2.67;1.90;;;;;;;9.73;63.11;153859.41;5077519;28;20453;-75
2022/03/14 18:55:40;;;;;;;1.67;1.57;;;;;;;9.73;62.89;153859.41;5064686;28;20450;-75
2022/03/14 18:58:16;;;;;;;4.53;3.30;;;;;;;9.72;63.35;153856.81;5076279;28;20450;-74
2022/03/14 19:00:56;;;;;;;4.10;2.63;;;;;;;9.68;63.23;153846.47;5051174;28;20849;-75
2022/03/14 19:03:33;;;;;;;3.53;2.60;;;;;;;9.62;63.47;153830.94;5075803;28;21087;-75
2022/03/14 19:06:10;;;;;;;2.90;2.03;;;;;;;9.56;63.87;153814.09;5063057;28;20442;-75
2022/03/14 19:08:47;;;;;;;4.60;3.77;;;;;;;9.54;63.77;153810.25;5063530;28;20456;-75
2022/03/14 19:11:24;;;;;;;2.50;2.30;;;;;;;9.56;63.62;153815.41;5065763;28;20475;-75
2022/03/14 19:14:01;;;;;;;5.20;3.10;;;;;;;9.58;63.45;153819.31;5065004;28;20449;-75
2022/03/14 19:16:37;;;;;;;4.23;3.07;;;;;;;9.58;63.61;153819.31;5075056;28;20548;-75
2022/03/14 19:19:13;;;;;;;3.50;2.40;;;;;;;9.55;63.84;153811.53;5049759;28;20870;-74
2022/03/14 19:21:49;;;;;;;3.40;2.13;;;;;;;9.50;63.81;153798.59;5060573;28;20438;-75
2022/03/14 19:24:24;;;;;;;4.93;2.80;;;;;;;9.47;63.99;153792.13;5042872;28;20498;-75
2022/03/14 19:27:00;;;;;;;6.67;2.67;;;;;;;9.53;63.83;153806.38;5090591;28;20441;-74
2022/03/14 19:29:37;;;;;;;3.60;2.57;;;;;;;9.46;63.98;153788.22;5060771;28;20458;-75
2022/03/14 19:32:14;;;;;;;4.00;2.37;;;;;;;9.47;64.22;153790.84;5097380;28;20465;-75
2022/03/14 19:34:55;;;;;;;8.33;2.50;;;;;;;9.44;64.19;153784.38;5058939;28;20867;-74
2022/03/14 19:37:32;;;;;;;3.00;2.20;;;;;;;9.39;64.60;153771.44;5061362;28;20434;-75
2022/03/14 19:40:09;;;;;;;12.20;6.53;;;;;;;9.40;64.44;153774.00;5065661;28;20454;-75
2022/03/14 19:42:44;;;;;;;12.70;8.10;;;;;;;9.40;64.34;153774.00;5041665;28;20495;-75
2022/03/14 19:45:21;;;;;;;9.80;7.60;;;;;;;9.34;64.41;153758.50;5066748;28;20442;-75
2022/03/14 19:47:57;;;;;;;6.30;3.00;;;;;;;9.35;64.63;153759.75;5097961;27;20446;-75
2022/03/14 19:50:33;;;;;;;4.20;3.63;;;;;;;9.33;64.79;153755.91;5065720;28;20948;-75
2022/03/14 19:53:08;;;;;;;9.00;4.90;;;;;;;9.27;64.87;153740.38;5099150;27;20465;-75
2022/03/14 19:55:44;;;;;;;6.67;5.23;;;;;;;9.26;65.08;153736.50;5099246;27;20478;-74
2022/03/14 19:58:24;;;;;;;2.93;2.47;;;;;;;9.25;64.99;153735.22;5063605;28;20439;-75
2022/03/14 20:01:02;;;;;;;5.80;2.90;;;;;;;9.20;65.45;153722.28;5064278;28;20442;-75
2022/03/14 20:03:38;;;;;;;3.50;3.13;;;;;;;9.14;65.96;153706.75;5061399;28;20867;-75
2022/03/14 20:06:16;;;;;;;5.80;3.83;;;;;;;9.15;65.69;153709.34;5066143;28;20560;-75
2022/03/14 20:08:52;;;;;;;4.90;3.40;;;;;;;9.15;65.47;153709.34;5062956;28;20807;-74
2022/03/14 20:11:28;;;;;;;3.33;2.50;;;;;;;9.08;66.01;153691.25;5078565;28;20465;-77
2022/03/14 20:14:04;;;;;;;4.40;2.20;;;;;;;8.99;66.37;153667.97;5078389;28;20458;-75
2022/03/14 20:16:42;;;;;;;4.27;3.03;;;;;;;8.94;66.41;153655.03;5079967;28;20449;-75
2022/03/14 20:19:18;;;;;;;3.77;2.57;;;;;;;8.92;66.78;153649.88;5098579;28;20473;-76
2022/03/14 20:21:55;;;;;;;3.33;2.07;;;;;;;8.90;66.74;153644.66;5085172;28;20441;-75
2022/03/14 20:24:30;;;;;;;3.00;2.00;;;;;;;8.83;67.07;153626.59;5070173;28;20546;-74
2022/03/14 20:27:06;;;;;;;2.20;2.00;;;;;;;8.81;67.24;153621.41;5060736;28;20548;-75
2022/03/14 20:29:42;;;;;;;3.37;2.60;;;;;;;8.75;67.68;153607.19;5101558;27;20484;-75
2022/03/14 20:32:19;;;;;;;4.93;2.87;;;;;;;8.72;68.39;153598.13;5075441;28;20473;-75
2022/03/14 20:34:55;;;;;;;3.10;2.70;;;;;;;8.62;69.06;153572.28;5093848;28;20442;-75
2022/03/14 20:37:32;;;;;;;3.73;3.00;;;;;;;8.59;68.74;153565.81;5061789;28;20445;-74
2022/03/14 20:40:09;;;;;;;3.33;2.87;;;;;;;8.53;68.52;153551.59;5060015;28;20465;-75
2022/03/14 20:42:45;;;;;;;4.60;3.30;;;;;;;8.54;68.93;153554.19;5068432;28;20453;-75
2022/03/14 20:45:20;;;;;;;2.33;2.00;;;;;;;8.72;67.76;153598.13;5064475;28;20438;-75
2022/03/14 20:47:57;;;;;;;4.70;2.60;;;;;;;9.00;66.79;153671.81;5098733;27;20466;-74
2022/03/14 20:50:33;;;;;;;3.30;2.00;;;;;;;8.94;66.78;153655.03;5065693;28;20452;-75
2022/03/14 20:53:09;;;;;;;3.70;2.90;;;;;;;9.00;66.64;153670.56;5063191;28;20811;-75
2022/03/14 20:55:44;;;;;;;4.33;2.60;;;;;;;8.83;67.31;153626.59;5076165;28;20460;-74
2022/03/14 20:58:20;;;;;;;5.10;2.30;;;;;;;8.87;67.43;153636.94;5064448;28;21212;-75
2022/03/14 21:00:55;;;;;;;3.00;2.20;;;;;;;8.84;67.57;153629.19;5065110;28;20449;-75
2022/03/14 21:03:32;;;;;;;3.00;2.70;;;;;;;8.51;68.87;153546.44;5064502;28;20837;-75
2022/03/14 21:06:08;;;;;;;5.30;3.13;;;;;;;8.42;69.93;153523.16;5064622;28;20438;-75
2022/03/14 21:08:44;;;;;;;5.47;3.07;;;;;;;8.36;69.31;153507.69;5064461;28;20519;-74
2022/03/14 21:11:22;;;;;;;4.53;2.90;;;;;;;8.32;69.96;153496.00;5095635;28;20898;-75
2022/03/14 21:13:57;;;;;;;2.67;2.43;;;;;;;8.28;70.40;153487.00;5065253;28;20477;-75
2022/03/14 21:16:33;;;;;;;3.83;2.90;;;;;;;8.30;70.31;153490.84;5050627;28;20433;-75
2022/03/14 21:19:10;;;;;;;3.60;3.10;;;;;;;8.31;70.36;153494.72;5063194;28;20469;-75
2022/03/14 21:21:45;;;;;;;3.03;2.73;;;;;;;8.31;70.50;153494.72;5082854;28;20845;-75
2022/03/14 21:24:25;;;;;;;3.10;2.80;;;;;;;8.33;70.50;153499.91;5053969;28;20468;-75
2022/03/14 21:27:01;;;;;;;4.10;3.10;;;;;;;8.32;70.46;153496.00;5084217;28;20485;-75
2022/03/14 21:29:37;;;;;;;7.13;3.93;;;;;;;8.28;70.89;153485.69;5067822;28;20805;-75
2022/03/14 21:32:13;;;;;;;4.00;3.60;;;;;;;8.28;70.81;153485.69;5086999;28;20463;-75
2022/03/14 21:34:53;;;;;;;4.13;2.63;;;;;;;8.26;71.07;153481.75;5083776;28;20485;-75
2022/03/14 21:37:28;;;;;;;3.03;2.73;;;;;;;8.22;71.30;153471.44;5069978;28;20438;-74
2022/03/14 21:40:08;;;;;;;7.10;3.47;;;;;;;8.18;72.35;153461.06;5067549;28;20534;-74
2022/03/14 21:42:44;;;;;;;4.10;3.20;;;;;;;8.21;71.97;153468.81;5066099;28;20808;-75
2022/03/14 21:45:21;;;;;;;3.63;3.10;;;;;;;8.29;71.35;153489.56;5081058;28;20445;-75
2022/03/14 21:47:56;;;;;;;4.57;3.53;;;;;;;8.36;71.11;153507.69;5098570;27;20454;-75
2022/03/14 21:50:35;;;;;;;4.33;3.90;;;;;;;8.41;70.68;153519.28;5082842;28;20477;-75
2022/03/14 21:53:10;;;;;;;4.33;2.77;;;;;;;8.36;71.10;153507.69;5067775;28;20457;-75
2022/03/14 21:55:46;;;;;;;3.57;3.27;;;;;;;8.42;70.86;153521.84;5061956;28;20734;-74
2022/03/14 21:58:22;;;;;;;3.53;3.23;;;;;;;8.53;70.72;153550.28;5066717;28;20779;-74
2022/03/14 22:00:59;;;;;;;4.10;3.30;;;;;;;8.49;70.67;153539.97;5067652;28;20433;-74
2022/03/14 22:03:35;;;;;;;5.00;4.20;;;;;;;8.50;70.62;153543.84;5064857;28;20454;-75
2022/03/14 22:06:13;;;;;;;4.43;4.03;;;;;;;8.45;70.78;153530.91;5085929;28;20452;-75
2022/03/14 22:08:49;;;;;;;5.50;3.83;;;;;;;8.42;71.07;153521.84;5082261;28;20453;-75
2022/03/14 22:11:24;;;;;;;4.37;3.37;;;;;;;8.41;71.41;153520.59;5100048;28;20446;-75
2022/03/14 22:14:01;;;;;;;3.93;3.53;;;;;;;8.41;71.20;153519.28;5064360;28;20501;-75
2022/03/14 22:16:37;;;;;;;4.20;3.80;;;;;;;8.36;71.48;153507.69;5064053;28;20445;-75
2022/03/14 22:19:12;;;;;;;5.60;3.60;;;;;;;8.31;71.60;153493.47;5061837;28;20504;-75
2022/03/14 22:21:49;;;;;;;4.20;3.57;;;;;;;8.27;72.04;153483.09;5067105;28;21075;-74
2022/03/14 22:24:25;;;;;;;3.97;3.57;;;;;;;8.27;71.96;153484.41;5097892;28;20445;-75
2022/03/14 22:27:01;;;;;;;4.73;3.00;;;;;;;8.23;71.93;153474.03;5081720;28;20772;-74
2022/03/14 22:29:38;;;;;;;4.83;3.10;;;;;;;8.13;73.17;153448.13;5067595;28;20474;-75
2022/03/14 22:32:16;;;;;;;3.87;3.57;;;;;;;8.22;72.54;153471.44;5053999;28;20454;-75
2022/03/14 22:34:51;;;;;;;4.13;3.60;;;;;;;8.19;73.00;153463.66;5066165;28;20446;-75
2022/03/14 22:37:28;;;;;;;5.30;4.00;;;;;;;8.13;72.97;153448.13;5067833;28;20453;-75
2022/03/14 22:40:05;;;;;;;6.00;3.90;;;;;;;8.14;73.17;153450.75;5061629;28;20480;-74
2022/03/14 22:42:41;;;;;;;4.57;3.67;;;;;;;8.11;73.39;153443.00;5064876;28;20445;-75
2022/03/14 22:45:17;;;;;;;6.50;3.90;;;;;;;8.14;73.00;153450.75;5065719;28;20536;-75
2022/03/14 22:47:52;;;;;;;5.63;4.10;;;;;;;8.14;73.49;153450.75;5099501;28;20781;-74
2022/03/14 22:50:28;;;;;;;4.63;3.53;;;;;;;8.12;73.42;153444.28;5078146;28;20956;-74
2022/03/14 22:53:06;;;;;;;4.70;4.20;;;;;;;8.10;73.54;153440.38;5063172;28;20458;-75
2022/03/14 22:55:43;;;;;;;4.60;4.07;;;;;;;8.09;73.38;153436.53;5065586;28;20462;-75
2022/03/14 22:58:19;;;;;;;4.60;4.17;;;;;;;8.07;73.37;153432.66;5067294;28;21458;-75
2022/03/14 23:00:55;;;;;;;5.00;4.27;;;;;;;8.05;73.79;153427.47;5065821;28;20426;-75
2022/03/14 23:06:23;;;;;;;4.73;3.70;;;;;;;7.99;74.17;153413.25;5064617;28;20801;-75
2022/03/14 23:09:00;;;;;;;6.10;3.60;;;;;;;7.98;74.44;153409.41;5063325;28;20817;-75
2022/03/14 23:11:37;;;;;;;5.07;4.00;;;;;;;7.96;74.20;153405.53;5062849;28;20918;-74
2022/03/14 23:14:17;;;;;;;5.33;4.10;;;;;;;7.95;74.08;153401.63;5061720;28;20471;-75
2022/03/14 23:16:53;;;;;;;5.23;4.13;;;;;;;7.93;74.37;153396.47;5064363;28;20438;-75
2022/03/14 23:19:28;;;;;;;6.73;4.50;;;;;;;7.92;74.47;153395.19;5044393;28;20485;-75
2022/03/14 23:22:09;;;;;;;6.30;4.10;;;;;;;7.92;74.52;153393.88;5062670;28;20804;-74
2022/03/14 23:24:46;;;;;;;6.53;4.47;;;;;;;7.96;74.67;153404.22;5097871;28;20450;-74
2022/03/14 23:27:22;;;;;;;7.63;3.83;;;;;;;7.97;74.64;153408.09;5064365;28;20450;-75
2022/03/14 23:29:57;;;;;;;5.07;3.43;;;;;;;7.91;74.92;153391.31;5100169;28;20465;-75
2022/03/14 23:32:33;;;;;;;4.40;4.00;;;;;;;7.88;74.94;153383.56;5066610;28;20453;-75
2022/03/14 23:35:09;;;;;;;5.33;3.50;;;;;;;7.88;75.13;153383.56;5079772;28;20849;-75
2022/03/14 23:37:44;;;;;;;4.33;3.90;;;;;;;7.89;74.70;153387.41;5066042;28;20455;-75